sensor_id;sensor_type;location;lat;lon;timestamp;P1;durP1;ratioP1;P2;durP2;ratioP2
8413;SDS011;4244;48.684;9.028;2022-08-20T00:00:14;1.93;;;1.73;;
8413;SDS011;4244;48.684;9.028;2022-08-20T00:02:43;1.83;;;1.73;;
8413;SDS011;4244;48.684;9.028;2022-08-20T00:05:15;2.10;;;1.87;;
8413;SDS011;4244;48.684;9.028;2022-08-20T00:07:44;2.00;;;1.80;;
8413;SDS011;4244;48.684;9.028;2022-08-20T00:10:10;2.30;;;2.00;;
8413;SDS011;4244;48.684;9.028;2022-08-20T00:12:36;2.10;;;1.70;;
8413;SDS011;4244;48.684;9.028;2022-08-20T00:15:03;2.07;;;1.63;;
8413;SDS011;4244;48.684;9.028;2022-08-20T00:17:30;2.53;;;1.87;;
8413;SDS011;4244;48.684;9.028;2022-08-20T00:20:03;4.20;;;1.90;;
8413;SDS011;4244;48.684;9.028;2022-08-20T00:22:31;1.70;;;1.57;;
8413;SDS011;4244;48.684;9.028;2022-08-20T00:24:57;2.47;;;2.27;;
8413;SDS011;4244;48.684;9.028;2022-08-20T00:27:23;2.10;;;1.90;;
8413;SDS011;4244;48.684;9.028;2022-08-20T00:29:48;2.17;;;1.97;;
8413;SDS011;4244;48.684;9.028;2022-08-20T00:32:14;2.90;;;1.80;;
8413;SDS011;4244;48.684;9.028;2022-08-20T00:34:40;2.23;;;1.77;;
8413;SDS011;4244;48.684;9.028;2022-08-20T00:37:06;2.10;;;1.90;;
8413;SDS011;4244;48.684;9.028;2022-08-20T00:39:33;1.80;;;1.70;;
8413;SDS011;4244;48.684;9.028;2022-08-20T00:41:59;1.73;;;1.60;;
8413;SDS011;4244;48.684;9.028;2022-08-20T00:44:25;2.80;;;1.50;;
8413;SDS011;4244;48.684;9.028;2022-08-20T00:46:51;2.00;;;1.80;;
8413;SDS011;4244;48.684;9.028;2022-08-20T00:49:20;1.93;;;1.70;;
8413;SDS011;4244;48.684;9.028;2022-08-20T00:54:38;2.40;;;2.00;;
8413;SDS011;4244;48.684;9.028;2022-08-20T00:57:08;2.97;;;2.10;;
8413;SDS011;4244;48.684;9.028;2022-08-20T00:59:36;1.67;;;1.50;;
8413;SDS011;4244;48.684;9.028;2022-08-20T01:02:04;2.13;;;1.93;;
8413;SDS011;4244;48.684;9.028;2022-08-20T01:04:32;3.07;;;2.20;;
8413;SDS011;4244;48.684;9.028;2022-08-20T01:06:59;2.20;;;1.93;;
8413;SDS011;4244;48.684;9.028;2022-08-20T01:09:25;2.10;;;1.73;;
8413;SDS011;4244;48.684;9.028;2022-08-20T01:11:51;1.80;;;1.70;;
8413;SDS011;4244;48.684;9.028;2022-08-20T01:14:18;2.07;;;1.97;;
8413;SDS011;4244;48.684;9.028;2022-08-20T01:17:01;2.40;;;2.20;;
8413;SDS011;4244;48.684;9.028;2022-08-20T01:19:30;1.90;;;1.70;;
8413;SDS011;4244;48.684;9.028;2022-08-20T01:22:02;2.23;;;2.03;;
8413;SDS011;4244;48.684;9.028;2022-08-20T01:24:49;2.17;;;1.97;;
8413;SDS011;4244;48.684;9.028;2022-08-20T01:27:18;2.80;;;2.00;;
8413;SDS011;4244;48.684;9.028;2022-08-20T01:29:43;2.60;;;2.40;;
8413;SDS011;4244;48.684;9.028;2022-08-20T01:32:10;4.27;;;2.00;;
8413;SDS011;4244;48.684;9.028;2022-08-20T01:34:35;2.20;;;1.93;;
8413;SDS011;4244;48.684;9.028;2022-08-20T01:37:01;3.03;;;2.73;;
8413;SDS011;4244;48.684;9.028;2022-08-20T01:39:30;2.77;;;2.57;;
8413;SDS011;4244;48.684;9.028;2022-08-20T01:42:06;2.43;;;1.97;;
8413;SDS011;4244;48.684;9.028;2022-08-20T01:44:44;2.70;;;2.37;;
8413;SDS011;4244;48.684;9.028;2022-08-20T01:49:51;2.30;;;2.10;;
8413;SDS011;4244;48.684;9.028;2022-08-20T01:55:05;5.63;;;3.93;;
8413;SDS011;4244;48.684;9.028;2022-08-20T01:57:32;2.40;;;2.20;;
8413;SDS011;4244;48.684;9.028;2022-08-20T01:59:59;2.33;;;1.90;;
8413;SDS011;4244;48.684;9.028;2022-08-20T02:02:26;2.33;;;2.07;;
8413;SDS011;4244;48.684;9.028;2022-08-20T02:04:52;2.07;;;1.87;;
8413;SDS011;4244;48.684;9.028;2022-08-20T02:07:19;2.87;;;2.30;;
8413;SDS011;4244;48.684;9.028;2022-08-20T02:09:46;2.30;;;2.10;;
8413;SDS011;4244;48.684;9.028;2022-08-20T02:12:14;2.60;;;2.37;;
8413;SDS011;4244;48.684;9.028;2022-08-20T02:14:40;2.70;;;2.50;;
8413;SDS011;4244;48.684;9.028;2022-08-20T02:17:13;3.17;;;2.27;;
8413;SDS011;4244;48.684;9.028;2022-08-20T02:19:41;2.37;;;2.17;;
8413;SDS011;4244;48.684;9.028;2022-08-20T02:22:12;2.40;;;2.17;;
8413;SDS011;4244;48.684;9.028;2022-08-20T02:24:45;2.60;;;2.40;;
8413;SDS011;4244;48.684;9.028;2022-08-20T02:27:11;2.63;;;2.43;;
8413;SDS011;4244;48.684;9.028;2022-08-20T02:29:37;3.60;;;2.63;;
8413;SDS011;4244;48.684;9.028;2022-08-20T02:32:03;3.13;;;2.50;;
8413;SDS011;4244;48.684;9.028;2022-08-20T02:34:30;2.67;;;2.47;;
8413;SDS011;4244;48.684;9.028;2022-08-20T02:36:58;3.00;;;2.47;;
8413;SDS011;4244;48.684;9.028;2022-08-20T02:39:25;2.47;;;2.27;;
8413;SDS011;4244;48.684;9.028;2022-08-20T02:41:51;3.23;;;2.93;;
8413;SDS011;4244;48.684;9.028;2022-08-20T02:44:16;2.13;;;1.93;;
8413;SDS011;4244;48.684;9.028;2022-08-20T02:46:44;2.40;;;2.20;;
8413;SDS011;4244;48.684;9.028;2022-08-20T02:49:11;3.43;;;2.70;;
8413;SDS011;4244;48.684;9.028;2022-08-20T02:51:37;3.10;;;2.80;;
8413;SDS011;4244;48.684;9.028;2022-08-20T02:54:02;2.60;;;2.40;;
8413;SDS011;4244;48.684;9.028;2022-08-20T02:56:28;2.70;;;2.50;;
8413;SDS011;4244;48.684;9.028;2022-08-20T02:58:53;2.77;;;2.57;;
8413;SDS011;4244;48.684;9.028;2022-08-20T03:01:19;2.70;;;2.50;;
8413;SDS011;4244;48.684;9.028;2022-08-20T03:03:45;2.73;;;2.53;;
8413;SDS011;4244;48.684;9.028;2022-08-20T03:06:11;3.60;;;2.50;;
8413;SDS011;4244;48.684;9.028;2022-08-20T03:08:37;3.20;;;3.00;;
8413;SDS011;4244;48.684;9.028;2022-08-20T03:11:03;2.97;;;2.67;;
8413;SDS011;4244;48.684;9.028;2022-08-20T03:13:29;3.13;;;2.60;;
8413;SDS011;4244;48.684;9.028;2022-08-20T03:15:55;2.90;;;2.57;;
8413;SDS011;4244;48.684;9.028;2022-08-20T03:18:23;3.40;;;2.73;;
8413;SDS011;4244;48.684;9.028;2022-08-20T03:20:50;3.40;;;3.10;;
8413;SDS011;4244;48.684;9.028;2022-08-20T03:23:16;3.30;;;3.00;;
8413;SDS011;4244;48.684;9.028;2022-08-20T03:25:43;3.33;;;3.03;;
8413;SDS011;4244;48.684;9.028;2022-08-20T03:28:10;3.50;;;3.20;;
8413;SDS011;4244;48.684;9.028;2022-08-20T03:30:36;3.80;;;3.50;;
8413;SDS011;4244;48.684;9.028;2022-08-20T03:33:02;4.10;;;3.80;;
8413;SDS011;4244;48.684;9.028;2022-08-20T03:35:28;3.80;;;3.50;;
8413;SDS011;4244;48.684;9.028;2022-08-20T03:37:55;4.20;;;3.73;;
8413;SDS011;4244;48.684;9.028;2022-08-20T03:40:23;4.27;;;3.87;;
8413;SDS011;4244;48.684;9.028;2022-08-20T03:42:54;4.57;;;3.57;;
8413;SDS011;4244;48.684;9.028;2022-08-20T03:45:21;4.60;;;4.20;;
8413;SDS011;4244;48.684;9.028;2022-08-20T03:47:47;4.30;;;3.83;;
8413;SDS011;4244;48.684;9.028;2022-08-20T03:50:13;4.47;;;4.07;;
8413;SDS011;4244;48.684;9.028;2022-08-20T03:52:39;4.33;;;3.90;;
8413;SDS011;4244;48.684;9.028;2022-08-20T03:55:06;4.23;;;3.93;;
8413;SDS011;4244;48.684;9.028;2022-08-20T03:57:32;4.10;;;3.80;;
8413;SDS011;4244;48.684;9.028;2022-08-20T03:59:58;4.00;;;3.60;;
8413;SDS011;4244;48.684;9.028;2022-08-20T04:02:24;4.43;;;4.03;;
8413;SDS011;4244;48.684;9.028;2022-08-20T04:04:50;4.53;;;4.23;;
8413;SDS011;4244;48.684;9.028;2022-08-20T04:07:18;4.20;;;3.90;;
8413;SDS011;4244;48.684;9.028;2022-08-20T04:09:50;4.20;;;3.90;;
8413;SDS011;4244;48.684;9.028;2022-08-20T04:12:16;4.57;;;4.20;;
8413;SDS011;4244;48.684;9.028;2022-08-20T04:14:42;5.00;;;4.60;;
8413;SDS011;4244;48.684;9.028;2022-08-20T04:17:09;6.23;;;4.33;;
8413;SDS011;4244;48.684;9.028;2022-08-20T04:19:36;5.00;;;4.50;;
8413;SDS011;4244;48.684;9.028;2022-08-20T04:22:03;4.60;;;4.30;;
8413;SDS011;4244;48.684;9.028;2022-08-20T04:24:29;4.47;;;4.07;;
8413;SDS011;4244;48.684;9.028;2022-08-20T04:26:55;4.80;;;4.43;;
8413;SDS011;4244;48.684;9.028;2022-08-20T04:29:22;4.67;;;4.33;;
8413;SDS011;4244;48.684;9.028;2022-08-20T04:31:48;5.03;;;4.53;;
8413;SDS011;4244;48.684;9.028;2022-08-20T04:34:14;5.33;;;4.93;;
8413;SDS011;4244;48.684;9.028;2022-08-20T04:36:43;4.83;;;4.40;;
8413;SDS011;4244;48.684;9.028;2022-08-20T04:39:10;4.73;;;4.23;;
8413;SDS011;4244;48.684;9.028;2022-08-20T04:41:36;5.10;;;4.60;;
8413;SDS011;4244;48.684;9.028;2022-08-20T04:44:02;5.03;;;4.63;;
8413;SDS011;4244;48.684;9.028;2022-08-20T04:46:27;4.53;;;4.23;;
8413;SDS011;4244;48.684;9.028;2022-08-20T04:48:55;5.07;;;4.67;;
8413;SDS011;4244;48.684;9.028;2022-08-20T04:51:21;5.03;;;4.63;;
8413;SDS011;4244;48.684;9.028;2022-08-20T04:53:47;7.27;;;4.37;;
8413;SDS011;4244;48.684;9.028;2022-08-20T04:56:12;4.07;;;3.67;;
8413;SDS011;4244;48.684;9.028;2022-08-20T04:58:38;5.10;;;4.60;;
8413;SDS011;4244;48.684;9.028;2022-08-20T05:01:07;5.07;;;4.67;;
8413;SDS011;4244;48.684;9.028;2022-08-20T05:03:35;5.20;;;4.80;;
8413;SDS011;4244;48.684;9.028;2022-08-20T05:06:02;4.23;;;3.93;;
8413;SDS011;4244;48.684;9.028;2022-08-20T05:08:29;4.83;;;4.43;;
8413;SDS011;4244;48.684;9.028;2022-08-20T05:10:56;4.60;;;4.20;;
8413;SDS011;4244;48.684;9.028;2022-08-20T05:13:22;4.33;;;4.03;;
8413;SDS011;4244;48.684;9.028;2022-08-20T05:15:49;4.97;;;4.53;;
8413;SDS011;4244;48.684;9.028;2022-08-20T05:18:16;4.70;;;4.30;;
8413;SDS011;4244;48.684;9.028;2022-08-20T05:20:43;4.70;;;4.40;;
8413;SDS011;4244;48.684;9.028;2022-08-20T05:23:11;5.27;;;4.77;;
8413;SDS011;4244;48.684;9.028;2022-08-20T05:25:38;5.07;;;4.67;;
8413;SDS011;4244;48.684;9.028;2022-08-20T05:28:06;4.60;;;4.20;;
8413;SDS011;4244;48.684;9.028;2022-08-20T05:30:34;4.60;;;4.20;;
8413;SDS011;4244;48.684;9.028;2022-08-20T05:33:01;5.47;;;5.07;;
8413;SDS011;4244;48.684;9.028;2022-08-20T05:35:29;5.50;;;5.00;;
8413;SDS011;4244;48.684;9.028;2022-08-20T05:37:55;4.47;;;4.10;;
8413;SDS011;4244;48.684;9.028;2022-08-20T05:40:22;5.63;;;5.13;;
8413;SDS011;4244;48.684;9.028;2022-08-20T05:42:47;5.17;;;4.77;;
8413;SDS011;4244;48.684;9.028;2022-08-20T05:45:13;4.70;;;4.30;;
8413;SDS011;4244;48.684;9.028;2022-08-20T05:47:41;5.37;;;4.97;;
8413;SDS011;4244;48.684;9.028;2022-08-20T05:50:07;5.80;;;5.23;;
8413;SDS011;4244;48.684;9.028;2022-08-20T05:52:33;5.07;;;4.67;;
8413;SDS011;4244;48.684;9.028;2022-08-20T05:54:59;4.83;;;4.40;;
8413;SDS011;4244;48.684;9.028;2022-08-20T05:57:25;4.83;;;4.43;;
8413;SDS011;4244;48.684;9.028;2022-08-20T05:59:50;5.97;;;5.53;;
8413;SDS011;4244;48.684;9.028;2022-08-20T06:02:17;5.03;;;4.60;;
8413;SDS011;4244;48.684;9.028;2022-08-20T06:05:01;5.10;;;4.70;;
8413;SDS011;4244;48.684;9.028;2022-08-20T06:07:27;5.13;;;4.63;;
8413;SDS011;4244;48.684;9.028;2022-08-20T06:09:52;5.13;;;4.63;;
8413;SDS011;4244;48.684;9.028;2022-08-20T06:12:18;5.37;;;4.80;;
8413;SDS011;4244;48.684;9.028;2022-08-20T06:14:43;5.20;;;4.80;;
8413;SDS011;4244;48.684;9.028;2022-08-20T06:17:14;5.60;;;4.97;;
8413;SDS011;4244;48.684;9.028;2022-08-20T06:19:41;6.27;;;5.37;;
8413;SDS011;4244;48.684;9.028;2022-08-20T06:22:08;5.17;;;4.70;;
8413;SDS011;4244;48.684;9.028;2022-08-20T06:24:33;5.43;;;4.93;;
8413;SDS011;4244;48.684;9.028;2022-08-20T06:27:00;5.23;;;4.73;;
8413;SDS011;4244;48.684;9.028;2022-08-20T06:29:27;4.37;;;3.97;;
8413;SDS011;4244;48.684;9.028;2022-08-20T06:31:54;5.60;;;4.97;;
8413;SDS011;4244;48.684;9.028;2022-08-20T06:34:19;5.80;;;5.10;;
8413;SDS011;4244;48.684;9.028;2022-08-20T06:36:46;5.63;;;5.00;;
8413;SDS011;4244;48.684;9.028;2022-08-20T06:39:14;5.97;;;5.40;;
8413;SDS011;4244;48.684;9.028;2022-08-20T06:41:40;5.17;;;4.77;;
8413;SDS011;4244;48.684;9.028;2022-08-20T06:44:06;6.83;;;5.47;;
8413;SDS011;4244;48.684;9.028;2022-08-20T06:46:33;4.90;;;4.27;;
8413;SDS011;4244;48.684;9.028;2022-08-20T06:49:00;6.07;;;5.43;;
8413;SDS011;4244;48.684;9.028;2022-08-20T06:51:27;5.33;;;4.83;;
8413;SDS011;4244;48.684;9.028;2022-08-20T06:53:53;5.00;;;4.50;;
8413;SDS011;4244;48.684;9.028;2022-08-20T06:56:19;4.73;;;4.33;;
8413;SDS011;4244;48.684;9.028;2022-08-20T06:58:45;5.00;;;4.60;;
8413;SDS011;4244;48.684;9.028;2022-08-20T07:01:10;4.87;;;4.43;;
8413;SDS011;4244;48.684;9.028;2022-08-20T07:03:38;5.90;;;5.33;;
8413;SDS011;4244;48.684;9.028;2022-08-20T07:06:05;6.03;;;5.33;;
8413;SDS011;4244;48.684;9.028;2022-08-20T07:08:31;5.17;;;4.77;;
8413;SDS011;4244;48.684;9.028;2022-08-20T07:10:57;6.30;;;4.47;;
8413;SDS011;4244;48.684;9.028;2022-08-20T07:13:23;4.60;;;4.20;;
8413;SDS011;4244;48.684;9.028;2022-08-20T07:15:49;5.57;;;5.07;;
8413;SDS011;4244;48.684;9.028;2022-08-20T07:18:15;6.33;;;5.03;;
8413;SDS011;4244;48.684;9.028;2022-08-20T07:20:41;5.57;;;5.07;;
8413;SDS011;4244;48.684;9.028;2022-08-20T07:23:08;4.27;;;3.87;;
8413;SDS011;4244;48.684;9.028;2022-08-20T07:25:36;5.13;;;4.73;;
8413;SDS011;4244;48.684;9.028;2022-08-20T07:28:04;5.37;;;4.90;;
8413;SDS011;4244;48.684;9.028;2022-08-20T07:30:31;5.23;;;4.73;;
8413;SDS011;4244;48.684;9.028;2022-08-20T07:33:16;5.90;;;5.30;;
8413;SDS011;4244;48.684;9.028;2022-08-20T07:35:42;5.57;;;5.07;;
8413;SDS011;4244;48.684;9.028;2022-08-20T07:38:12;5.87;;;5.37;;
8413;SDS011;4244;48.684;9.028;2022-08-20T07:40:42;5.00;;;4.60;;
8413;SDS011;4244;48.684;9.028;2022-08-20T07:43:08;5.63;;;5.13;;
8413;SDS011;4244;48.684;9.028;2022-08-20T07:45:34;4.40;;;4.00;;
8413;SDS011;4244;48.684;9.028;2022-08-20T07:48:09;4.90;;;4.47;;
8413;SDS011;4244;48.684;9.028;2022-08-20T07:50:36;5.20;;;4.70;;
8413;SDS011;4244;48.684;9.028;2022-08-20T07:53:02;5.43;;;4.93;;
8413;SDS011;4244;48.684;9.028;2022-08-20T07:55:28;5.40;;;4.90;;
8413;SDS011;4244;48.684;9.028;2022-08-20T07:57:55;5.83;;;5.33;;
8413;SDS011;4244;48.684;9.028;2022-08-20T08:00:22;5.07;;;4.67;;
8413;SDS011;4244;48.684;9.028;2022-08-20T08:02:49;5.00;;;4.60;;
8413;SDS011;4244;48.684;9.028;2022-08-20T08:05:15;5.67;;;5.07;;
8413;SDS011;4244;48.684;9.028;2022-08-20T08:07:42;4.40;;;4.10;;
8413;SDS011;4244;48.684;9.028;2022-08-20T08:10:10;5.87;;;4.53;;
8413;SDS011;4244;48.684;9.028;2022-08-20T08:12:38;5.77;;;5.27;;
8413;SDS011;4244;48.684;9.028;2022-08-20T08:15:06;4.73;;;4.33;;
8413;SDS011;4244;48.684;9.028;2022-08-20T08:17:34;4.63;;;4.23;;
8413;SDS011;4244;48.684;9.028;2022-08-20T08:20:02;4.33;;;3.97;;
8413;SDS011;4244;48.684;9.028;2022-08-20T08:22:29;5.37;;;4.90;;
8413;SDS011;4244;48.684;9.028;2022-08-20T08:24:55;5.13;;;4.73;;
8413;SDS011;4244;48.684;9.028;2022-08-20T08:27:26;5.57;;;5.07;;
8413;SDS011;4244;48.684;9.028;2022-08-20T08:29:58;4.80;;;4.37;;
8413;SDS011;4244;48.684;9.028;2022-08-20T08:32:25;4.13;;;3.80;;
8413;SDS011;4244;48.684;9.028;2022-08-20T08:34:51;4.13;;;3.83;;
8413;SDS011;4244;48.684;9.028;2022-08-20T08:37:17;5.90;;;4.53;;
8413;SDS011;4244;48.684;9.028;2022-08-20T08:39:42;3.90;;;3.60;;
8413;SDS011;4244;48.684;9.028;2022-08-20T08:42:16;5.37;;;4.50;;
8413;SDS011;4244;48.684;9.028;2022-08-20T08:45:05;4.73;;;4.33;;
8413;SDS011;4244;48.684;9.028;2022-08-20T08:47:33;5.07;;;4.57;;
8413;SDS011;4244;48.684;9.028;2022-08-20T08:50:00;4.90;;;3.80;;
8413;SDS011;4244;48.684;9.028;2022-08-20T08:52:28;4.93;;;4.50;;
8413;SDS011;4244;48.684;9.028;2022-08-20T08:54:56;4.40;;;4.03;;
8413;SDS011;4244;48.684;9.028;2022-08-20T08:57:23;5.53;;;5.03;;
8413;SDS011;4244;48.684;9.028;2022-08-20T09:00:12;4.57;;;4.20;;
8413;SDS011;4244;48.684;9.028;2022-08-20T09:02:38;4.30;;;4.00;;
8413;SDS011;4244;48.684;9.028;2022-08-20T09:05:13;3.63;;;3.43;;
8413;SDS011;4244;48.684;9.028;2022-08-20T09:07:41;4.43;;;4.13;;
8413;SDS011;4244;48.684;9.028;2022-08-20T09:10:09;4.30;;;3.93;;
8413;SDS011;4244;48.684;9.028;2022-08-20T09:12:35;3.50;;;3.20;;
8413;SDS011;4244;48.684;9.028;2022-08-20T09:15:00;4.67;;;4.27;;
8413;SDS011;4244;48.684;9.028;2022-08-20T09:17:26;3.40;;;3.10;;
8413;SDS011;4244;48.684;9.028;2022-08-20T09:19:52;3.30;;;3.00;;
8413;SDS011;4244;48.684;9.028;2022-08-20T09:22:18;3.90;;;3.60;;
8413;SDS011;4244;48.684;9.028;2022-08-20T09:24:45;3.33;;;2.90;;
8413;SDS011;4244;48.684;9.028;2022-08-20T09:27:11;3.30;;;3.07;;
8413;SDS011;4244;48.684;9.028;2022-08-20T09:29:37;3.37;;;3.17;;
8413;SDS011;4244;48.684;9.028;2022-08-20T09:32:14;3.50;;;3.20;;
8413;SDS011;4244;48.684;9.028;2022-08-20T09:34:45;3.70;;;3.30;;
8413;SDS011;4244;48.684;9.028;2022-08-20T09:37:12;2.63;;;2.43;;
8413;SDS011;4244;48.684;9.028;2022-08-20T09:39:39;2.83;;;2.63;;
8413;SDS011;4244;48.684;9.028;2022-08-20T09:42:12;3.10;;;2.90;;
8413;SDS011;4244;48.684;9.028;2022-08-20T09:44:43;3.50;;;2.60;;
8413;SDS011;4244;48.684;9.028;2022-08-20T09:47:08;3.90;;;3.00;;
8413;SDS011;4244;48.684;9.028;2022-08-20T09:49:34;2.17;;;2.07;;
8413;SDS011;4244;48.684;9.028;2022-08-20T09:52:01;2.47;;;2.27;;
8413;SDS011;4244;48.684;9.028;2022-08-20T09:54:28;3.27;;;2.97;;
8413;SDS011;4244;48.684;9.028;2022-08-20T09:56:57;2.80;;;2.47;;
8413;SDS011;4244;48.684;9.028;2022-08-20T09:59:24;2.73;;;2.43;;
8413;SDS011;4244;48.684;9.028;2022-08-20T10:01:50;2.70;;;2.50;;
8413;SDS011;4244;48.684;9.028;2022-08-20T10:04:16;2.73;;;2.53;;
8413;SDS011;4244;48.684;9.028;2022-08-20T10:06:41;2.90;;;2.70;;
8413;SDS011;4244;48.684;9.028;2022-08-20T10:09:07;2.73;;;2.53;;
8413;SDS011;4244;48.684;9.028;2022-08-20T10:11:32;2.60;;;2.40;;
8413;SDS011;4244;48.684;9.028;2022-08-20T10:13:58;3.10;;;2.53;;
8413;SDS011;4244;48.684;9.028;2022-08-20T10:16:24;8.27;;;2.93;;
8413;SDS011;4244;48.684;9.028;2022-08-20T10:18:49;4.73;;;2.80;;
8413;SDS011;4244;48.684;9.028;2022-08-20T10:21:15;2.67;;;2.47;;
8413;SDS011;4244;48.684;9.028;2022-08-20T10:23:41;2.63;;;2.43;;
8413;SDS011;4244;48.684;9.028;2022-08-20T10:26:10;2.07;;;1.87;;
8413;SDS011;4244;48.684;9.028;2022-08-20T10:28:36;2.30;;;2.10;;
8413;SDS011;4244;48.684;9.028;2022-08-20T10:31:04;2.30;;;1.30;;
8413;SDS011;4244;48.684;9.028;2022-08-20T10:33:31;1.37;;;0.93;;
8413;SDS011;4244;48.684;9.028;2022-08-20T10:35:56;1.90;;;1.13;;
8413;SDS011;4244;48.684;9.028;2022-08-20T10:38:22;1.20;;;0.90;;
8413;SDS011;4244;48.684;9.028;2022-08-20T10:40:48;1.83;;;1.33;;
8413;SDS011;4244;48.684;9.028;2022-08-20T10:43:13;1.73;;;1.20;;
8413;SDS011;4244;48.684;9.028;2022-08-20T10:45:39;1.40;;;1.07;;
8413;SDS011;4244;48.684;9.028;2022-08-20T10:48:05;2.40;;;0.87;;
8413;SDS011;4244;48.684;9.028;2022-08-20T10:50:31;1.20;;;1.00;;
8413;SDS011;4244;48.684;9.028;2022-08-20T10:52:57;1.67;;;0.80;;
8413;SDS011;4244;48.684;9.028;2022-08-20T10:55:23;1.50;;;0.90;;
8413;SDS011;4244;48.684;9.028;2022-08-20T10:57:48;3.30;;;0.87;;
8413;SDS011;4244;48.684;9.028;2022-08-20T11:00:15;1.40;;;0.70;;
8413;SDS011;4244;48.684;9.028;2022-08-20T11:02:41;4.30;;;2.20;;
8413;SDS011;4244;48.684;9.028;2022-08-20T11:05:07;1.40;;;1.07;;
8413;SDS011;4244;48.684;9.028;2022-08-20T11:07:34;2.07;;;1.10;;
8413;SDS011;4244;48.684;9.028;2022-08-20T11:10:02;2.50;;;1.40;;
8413;SDS011;4244;48.684;9.028;2022-08-20T11:12:29;1.40;;;1.30;;
8413;SDS011;4244;48.684;9.028;2022-08-20T11:14:54;1.60;;;1.20;;
8413;SDS011;4244;48.684;9.028;2022-08-20T11:17:28;1.30;;;1.20;;
8413;SDS011;4244;48.684;9.028;2022-08-20T11:19:55;1.20;;;1.00;;
8413;SDS011;4244;48.684;9.028;2022-08-20T11:22:21;1.97;;;1.43;;
8413;SDS011;4244;48.684;9.028;2022-08-20T11:24:48;2.10;;;1.37;;
8413;SDS011;4244;48.684;9.028;2022-08-20T11:27:35;1.20;;;0.80;;
8413;SDS011;4244;48.684;9.028;2022-08-20T11:30:01;3.53;;;1.00;;
8413;SDS011;4244;48.684;9.028;2022-08-20T11:32:27;1.00;;;0.80;;
8413;SDS011;4244;48.684;9.028;2022-08-20T11:34:53;1.53;;;1.00;;
8413;SDS011;4244;48.684;9.028;2022-08-20T11:37:20;1.30;;;1.00;;
8413;SDS011;4244;48.684;9.028;2022-08-20T11:39:46;1.63;;;1.27;;
8413;SDS011;4244;48.684;9.028;2022-08-20T11:42:12;1.70;;;1.10;;
8413;SDS011;4244;48.684;9.028;2022-08-20T11:44:38;1.77;;;1.37;;
8413;SDS011;4244;48.684;9.028;2022-08-20T11:47:04;1.40;;;1.10;;
8413;SDS011;4244;48.684;9.028;2022-08-20T11:49:31;1.50;;;1.30;;
8413;SDS011;4244;48.684;9.028;2022-08-20T11:51:58;1.77;;;1.30;;
8413;SDS011;4244;48.684;9.028;2022-08-20T11:54:24;2.30;;;1.33;;
8413;SDS011;4244;48.684;9.028;2022-08-20T11:56:52;1.93;;;1.33;;
8413;SDS011;4244;48.684;9.028;2022-08-20T11:59:20;1.23;;;1.13;;
8413;SDS011;4244;48.684;9.028;2022-08-20T12:01:46;1.30;;;1.20;;
8413;SDS011;4244;48.684;9.028;2022-08-20T12:04:11;1.83;;;1.47;;
8413;SDS011;4244;48.684;9.028;2022-08-20T12:06:37;1.30;;;1.20;;
8413;SDS011;4244;48.684;9.028;2022-08-20T12:09:03;1.40;;;1.00;;
8413;SDS011;4244;48.684;9.028;2022-08-20T12:11:29;1.43;;;1.10;;
8413;SDS011;4244;48.684;9.028;2022-08-20T12:13:54;1.40;;;0.80;;
8413;SDS011;4244;48.684;9.028;2022-08-20T12:16:20;1.83;;;1.10;;
8413;SDS011;4244;48.684;9.028;2022-08-20T12:18:46;1.60;;;1.33;;
8413;SDS011;4244;48.684;9.028;2022-08-20T12:21:13;1.40;;;0.87;;
8413;SDS011;4244;48.684;9.028;2022-08-20T12:23:39;1.07;;;0.80;;
8413;SDS011;4244;48.684;9.028;2022-08-20T12:26:05;1.30;;;1.07;;
8413;SDS011;4244;48.684;9.028;2022-08-20T12:28:31;1.20;;;0.93;;
8413;SDS011;4244;48.684;9.028;2022-08-20T12:30:57;1.83;;;0.80;;
8413;SDS011;4244;48.684;9.028;2022-08-20T12:33:23;1.30;;;1.00;;
8413;SDS011;4244;48.684;9.028;2022-08-20T12:35:49;1.57;;;0.90;;
8413;SDS011;4244;48.684;9.028;2022-08-20T12:38:15;1.47;;;1.07;;
8413;SDS011;4244;48.684;9.028;2022-08-20T12:40:42;1.60;;;1.10;;
8413;SDS011;4244;48.684;9.028;2022-08-20T12:43:08;1.47;;;1.13;;
8413;SDS011;4244;48.684;9.028;2022-08-20T12:45:34;1.37;;;1.07;;
8413;SDS011;4244;48.684;9.028;2022-08-20T12:48:03;1.30;;;1.20;;
8413;SDS011;4244;48.684;9.028;2022-08-20T12:50:30;2.10;;;1.40;;
8413;SDS011;4244;48.684;9.028;2022-08-20T12:52:56;4.27;;;2.03;;
8413;SDS011;4244;48.684;9.028;2022-08-20T12:55:22;1.63;;;1.53;;
8413;SDS011;4244;48.684;9.028;2022-08-20T12:57:49;1.67;;;1.37;;
8413;SDS011;4244;48.684;9.028;2022-08-20T13:00:21;1.60;;;1.50;;
8413;SDS011;4244;48.684;9.028;2022-08-20T13:02:49;1.40;;;1.27;;
8413;SDS011;4244;48.684;9.028;2022-08-20T13:05:16;1.70;;;1.60;;
8413;SDS011;4244;48.684;9.028;2022-08-20T13:07:42;1.87;;;1.50;;
8413;SDS011;4244;48.684;9.028;2022-08-20T13:10:16;1.90;;;1.20;;
8413;SDS011;4244;48.684;9.028;2022-08-20T13:12:46;1.30;;;1.10;;
8413;SDS011;4244;48.684;9.028;2022-08-20T13:15:12;1.47;;;1.37;;
8413;SDS011;4244;48.684;9.028;2022-08-20T13:17:37;1.50;;;1.40;;
8413;SDS011;4244;48.684;9.028;2022-08-20T13:20:05;1.53;;;1.43;;
8413;SDS011;4244;48.684;9.028;2022-08-20T13:22:33;1.70;;;1.60;;
8413;SDS011;4244;48.684;9.028;2022-08-20T13:24:58;1.30;;;1.20;;
8413;SDS011;4244;48.684;9.028;2022-08-20T13:27:24;1.50;;;1.30;;
8413;SDS011;4244;48.684;9.028;2022-08-20T13:29:51;1.50;;;1.07;;
8413;SDS011;4244;48.684;9.028;2022-08-20T13:32:18;1.50;;;1.40;;
8413;SDS011;4244;48.684;9.028;2022-08-20T13:34:45;1.60;;;1.50;;
8413;SDS011;4244;48.684;9.028;2022-08-20T13:37:11;1.50;;;1.10;;
8413;SDS011;4244;48.684;9.028;2022-08-20T13:39:42;3.63;;;1.33;;
8413;SDS011;4244;48.684;9.028;2022-08-20T13:42:08;1.90;;;1.33;;
8413;SDS011;4244;48.684;9.028;2022-08-20T13:44:35;1.70;;;1.47;;
8413;SDS011;4244;48.684;9.028;2022-08-20T13:47:11;1.80;;;1.57;;
8413;SDS011;4244;48.684;9.028;2022-08-20T13:50:01;1.60;;;1.50;;
8413;SDS011;4244;48.684;9.028;2022-08-20T13:52:39;1.53;;;1.43;;
8413;SDS011;4244;48.684;9.028;2022-08-20T13:55:05;2.10;;;1.47;;
8413;SDS011;4244;48.684;9.028;2022-08-20T13:57:32;1.60;;;1.50;;
8413;SDS011;4244;48.684;9.028;2022-08-20T13:59:58;1.60;;;1.37;;
8413;SDS011;4244;48.684;9.028;2022-08-20T14:02:23;1.40;;;1.27;;
8413;SDS011;4244;48.684;9.028;2022-08-20T14:04:50;1.70;;;1.50;;
8413;SDS011;4244;48.684;9.028;2022-08-20T14:09:54;1.70;;;1.60;;
8413;SDS011;4244;48.684;9.028;2022-08-20T14:12:21;1.80;;;1.50;;
8413;SDS011;4244;48.684;9.028;2022-08-20T14:14:47;1.73;;;1.63;;
8413;SDS011;4244;48.684;9.028;2022-08-20T14:19:44;1.97;;;1.53;;
8413;SDS011;4244;48.684;9.028;2022-08-20T14:22:11;1.53;;;1.33;;
8413;SDS011;4244;48.684;9.028;2022-08-20T14:24:36;1.47;;;1.30;;
8413;SDS011;4244;48.684;9.028;2022-08-20T14:27:03;1.60;;;1.40;;
8413;SDS011;4244;48.684;9.028;2022-08-20T14:29:31;1.80;;;1.70;;
8413;SDS011;4244;48.684;9.028;2022-08-20T14:32:00;2.40;;;1.80;;
8413;SDS011;4244;48.684;9.028;2022-08-20T14:34:26;2.10;;;1.77;;
8413;SDS011;4244;48.684;9.028;2022-08-20T14:36:52;1.67;;;1.57;;
8413;SDS011;4244;48.684;9.028;2022-08-20T14:39:17;1.40;;;1.30;;
8413;SDS011;4244;48.684;9.028;2022-08-20T14:41:43;1.60;;;1.50;;
8413;SDS011;4244;48.684;9.028;2022-08-20T14:44:08;1.50;;;1.13;;
8413;SDS011;4244;48.684;9.028;2022-08-20T14:46:34;1.70;;;1.23;;
8413;SDS011;4244;48.684;9.028;2022-08-20T14:48:59;1.50;;;1.20;;
8413;SDS011;4244;48.684;9.028;2022-08-20T14:51:25;1.90;;;1.17;;
8413;SDS011;4244;48.684;9.028;2022-08-20T14:53:51;1.60;;;1.03;;
8413;SDS011;4244;48.684;9.028;2022-08-20T14:56:16;1.77;;;1.03;;
8413;SDS011;4244;48.684;9.028;2022-08-20T14:58:42;1.80;;;1.27;;
8413;SDS011;4244;48.684;9.028;2022-08-20T15:01:08;1.20;;;0.97;;
8413;SDS011;4244;48.684;9.028;2022-08-20T15:03:33;1.10;;;0.77;;
8413;SDS011;4244;48.684;9.028;2022-08-20T15:05:59;1.27;;;0.90;;
8413;SDS011;4244;48.684;9.028;2022-08-20T15:08:25;1.10;;;0.93;;
8413;SDS011;4244;48.684;9.028;2022-08-20T15:10:50;2.27;;;1.60;;
8413;SDS011;4244;48.684;9.028;2022-08-20T15:13:16;2.10;;;1.30;;
8413;SDS011;4244;48.684;9.028;2022-08-20T15:15:42;2.70;;;1.37;;
8413;SDS011;4244;48.684;9.028;2022-08-20T15:18:08;1.73;;;1.00;;
8413;SDS011;4244;48.684;9.028;2022-08-20T15:20:34;1.60;;;1.20;;
8413;SDS011;4244;48.684;9.028;2022-08-20T15:23:00;1.53;;;1.10;;
8413;SDS011;4244;48.684;9.028;2022-08-20T15:25:27;1.50;;;1.13;;
8413;SDS011;4244;48.684;9.028;2022-08-20T15:27:57;1.63;;;1.13;;